createdAt,value
2022-08-10T00:01:34.471Z,19.70
2022-08-10T00:04:42.520Z,19.60
2022-08-10T00:07:47.755Z,19.60
2022-08-10T00:10:52.836Z,19.60
2022-08-10T00:13:57.921Z,19.50
2022-08-10T00:17:06.063Z,19.50
2022-08-10T00:20:16.601Z,19.50
2022-08-10T00:23:21.774Z,19.40
2022-08-10T00:26:26.921Z,19.40
2022-08-10T00:29:52.337Z,19.40
2022-08-10T00:32:57.532Z,19.30
2022-08-10T00:36:05.209Z,19.30
2022-08-10T00:39:15.887Z,19.30
2022-08-10T00:42:21.052Z,19.20
2022-08-10T00:45:26.332Z,19.20
2022-08-10T00:48:32.661Z,19.20
2022-08-10T00:51:48.055Z,19.20
2022-08-10T00:54:54.794Z,19.20
2022-08-10T00:58:00.597Z,19.20
2022-08-10T01:01:05.726Z,19.20
2022-08-10T01:04:58.514Z,19.10
2022-08-10T01:07:59.560Z,19.10
2022-08-10T01:11:42.385Z,19.10
2022-08-10T01:14:40.578Z,19.10
2022-08-10T01:17:55.347Z,19.00
2022-08-10T01:21:32.558Z,19.00
2022-08-10T01:25:12.053Z,19.00
2022-08-10T01:28:29.089Z,19.00
2022-08-10T01:31:43.202Z,18.90
2022-08-10T01:34:54.711Z,18.90
2022-08-10T01:38:06.359Z,18.90
2022-08-10T01:41:14.902Z,18.90
2022-08-10T01:44:26.714Z,18.80
2022-08-10T01:47:52.935Z,18.80
2022-08-10T01:51:03.431Z,18.80
2022-08-10T01:54:13.110Z,18.80
2022-08-10T01:57:20.671Z,18.80
2022-08-10T02:00:27.750Z,18.80
2022-08-10T02:04:03.516Z,18.80
2022-08-10T02:07:07.087Z,18.70
2022-08-10T02:10:19.271Z,18.70
2022-08-10T02:13:25.405Z,18.70
2022-08-10T02:16:32.781Z,18.70
2022-08-10T02:19:44.066Z,18.60
2022-08-10T02:22:55.398Z,18.60
2022-08-10T02:26:02.796Z,18.60
2022-08-10T02:29:09.338Z,18.60
2022-08-10T02:32:24.534Z,18.60
2022-08-10T02:35:54.518Z,18.50
2022-08-10T02:39:04.086Z,18.50
2022-08-10T02:45:12.426Z,18.50
2022-08-10T02:45:46.766Z,18.50
2022-08-10T02:48:56.987Z,18.40
2022-08-10T02:52:10.388Z,18.40
2022-08-10T02:55:26.986Z,18.40
2022-08-10T02:58:37.574Z,18.40
2022-08-10T03:01:46.400Z,18.30
2022-08-10T03:04:58.053Z,18.30
2022-08-10T03:08:09.878Z,18.30
2022-08-10T03:12:37.933Z,18.30
2022-08-10T03:14:54.043Z,18.30
2022-08-10T03:18:00.469Z,18.30
2022-08-10T03:21:11.425Z,18.20
2022-08-10T03:24:30.062Z,18.20
2022-08-10T03:27:38.617Z,18.20
2022-08-10T03:30:46.049Z,18.20
2022-08-10T03:33:51.842Z,18.20
2022-08-10T03:36:56.886Z,18.20
2022-08-10T03:40:05.125Z,18.10
2022-08-10T03:43:11.850Z,18.10
2022-08-10T03:46:19.424Z,18.00
2022-08-10T03:49:26.153Z,18.00
2022-08-10T03:52:31.748Z,18.10
2022-08-10T03:56:28.632Z,18.00
2022-08-10T03:59:08.251Z,18.00
2022-08-10T04:02:46.908Z,18.00
2022-08-10T04:05:40.543Z,17.90
2022-08-10T04:08:46.578Z,17.90
2022-08-10T04:11:54.268Z,17.90
2022-08-10T04:14:59.333Z,17.90
2022-08-10T04:18:06.395Z,17.80
2022-08-10T04:21:14.971Z,17.80
2022-08-10T04:24:29.845Z,17.80
2022-08-10T04:27:40.880Z,17.80
2022-08-10T04:30:51.082Z,17.80
2022-08-10T04:33:57.230Z,17.70
2022-08-10T04:37:09.357Z,17.70
2022-08-10T04:40:28.836Z,17.70
2022-08-10T04:43:39.034Z,17.70
2022-08-10T04:46:57.667Z,17.70
2022-08-10T04:50:10.218Z,17.60
2022-08-10T04:53:15.392Z,17.60
2022-08-10T04:56:20.473Z,17.60
2022-08-10T04:59:40.707Z,17.60
2022-08-10T05:02:46.630Z,17.60
2022-08-10T05:05:52.811Z,17.50
2022-08-10T05:08:59.623Z,17.50
2022-08-10T05:12:04.643Z,17.50
2022-08-10T05:15:16.985Z,17.50
2022-08-10T05:18:22.185Z,17.50
2022-08-10T05:22:02.946Z,17.50
2022-08-10T05:24:52.522Z,17.50
2022-08-10T05:27:57.849Z,17.50
2022-08-10T05:31:05.545Z,17.50
2022-08-10T05:34:20.404Z,17.50
2022-08-10T05:38:12.902Z,17.50
2022-08-10T05:40:56.861Z,17.50
2022-08-10T05:44:02.247Z,17.50
2022-08-10T05:47:12.888Z,17.50
2022-08-10T05:50:19.873Z,17.50
2022-08-10T05:54:01.746Z,17.50
2022-08-10T05:56:55.100Z,17.60
2022-08-10T06:00:34.771Z,17.60
2022-08-10T06:03:40.560Z,17.70
2022-08-10T06:06:49.073Z,17.80
2022-08-10T06:09:58.943Z,17.80
2022-08-10T06:13:27.143Z,17.90
2022-08-10T06:16:36.015Z,18.10
2022-08-10T06:19:44.503Z,18.20
2022-08-10T06:22:49.506Z,18.40
2022-08-10T06:26:10.176Z,18.50
2022-08-10T06:29:21.520Z,18.60
2022-08-10T06:32:28.653Z,18.80
2022-08-10T06:35:38.670Z,19.00
2022-08-10T06:38:46.860Z,19.10
2022-08-10T06:41:57.761Z,19.30
2022-08-10T06:45:30.520Z,19.50
2022-08-10T06:48:39.134Z,19.60
2022-08-10T06:51:57.462Z,19.80
2022-08-10T06:55:05.483Z,20.00
2022-08-10T06:58:15.528Z,20.10
2022-08-10T07:01:26.574Z,20.30
2022-08-10T07:04:38.482Z,20.50
2022-08-10T07:07:48.584Z,20.70
2022-08-10T07:10:59.042Z,20.90
2022-08-10T07:14:15.458Z,21.10
2022-08-10T07:17:25.800Z,21.30
2022-08-10T07:20:31.773Z,21.50
2022-08-10T07:23:58.843Z,21.70
2022-08-10T07:27:07.798Z,21.90
2022-08-10T07:30:14.112Z,22.10
2022-08-10T07:33:22.224Z,22.30
2022-08-10T07:36:29.585Z,22.50
2022-08-10T07:39:57.908Z,22.60
2022-08-10T07:43:08.573Z,22.90
2022-08-10T07:46:16.971Z,23.00
2022-08-10T07:49:29.369Z,23.20
2022-08-10T07:52:37.874Z,23.40
2022-08-10T07:56:05.507Z,23.60
2022-08-10T07:59:17.568Z,23.70
2022-08-10T08:02:28.766Z,24.00
2022-08-10T08:05:58.905Z,24.20
2022-08-10T08:09:03.691Z,24.40
2022-08-10T08:12:13.393Z,24.60
2022-08-10T08:16:18.640Z,24.80
2022-08-10T08:19:04.085Z,25.00
2022-08-10T08:24:14.785Z,25.20
2022-08-10T08:25:41.204Z,25.30
2022-08-10T08:28:50.206Z,25.50
2022-08-10T08:32:01.829Z,25.60
2022-08-10T08:35:10.899Z,25.80
2022-08-10T08:38:32.409Z,26.00
2022-08-10T08:42:03.290Z,26.10
2022-08-10T08:45:22.653Z,26.30
2022-08-10T08:48:55.871Z,26.50
2022-08-10T08:52:18.635Z,26.70
2022-08-10T08:56:03.542Z,26.90
2022-08-10T08:59:19.219Z,27.00
2022-08-10T09:02:39.080Z,27.20
2022-08-10T09:05:58.520Z,27.40
2022-08-10T09:09:35.330Z,27.60
2022-08-10T09:12:54.350Z,27.70
2022-08-10T09:16:11.584Z,28.00
2022-08-10T09:19:36.140Z,28.10
2022-08-10T09:22:50.448Z,28.30
2022-08-10T09:25:57.446Z,28.50
2022-08-10T09:29:12.315Z,28.60
2022-08-10T09:36:15.958Z,28.70
2022-08-10T09:36:21.773Z,28.80
2022-08-10T09:40:12.268Z,29.00
2022-08-10T09:43:25.368Z,29.10
2022-08-10T09:46:44.583Z,29.20
2022-08-10T09:50:04.888Z,29.30
2022-08-10T09:53:23.366Z,29.50
2022-08-10T09:56:38.053Z,29.60
2022-08-10T10:00:07.523Z,29.70
2022-08-10T10:03:23.963Z,29.90
2022-08-10T10:06:42.454Z,30.10
2022-08-10T10:09:57.090Z,30.20
2022-08-10T10:13:08.374Z,30.30
2022-08-10T10:16:28.713Z,30.40
2022-08-10T10:19:50.278Z,30.60
2022-08-10T10:23:01.945Z,30.70
2022-08-10T10:26:22.093Z,30.80
2022-08-10T10:29:56.872Z,30.90
2022-08-10T10:33:15.430Z,31.00
2022-08-10T10:36:22.147Z,31.10
2022-08-10T10:39:30.245Z,31.20
2022-08-10T10:42:49.323Z,31.30
2022-08-10T10:46:06.050Z,31.40
2022-08-10T10:49:23.556Z,31.50
2022-08-10T10:52:39.752Z,31.60
2022-08-10T10:56:15.029Z,31.70
2022-08-10T10:59:56.401Z,31.80
2022-08-10T11:03:09.409Z,31.90
2022-08-10T11:06:39.519Z,31.90
2022-08-10T11:10:04.785Z,32.00
2022-08-10T11:14:26.345Z,32.10
2022-08-10T11:17:14.310Z,32.10
2022-08-10T11:20:28.516Z,32.20
2022-08-10T11:23:41.941Z,32.30
2022-08-10T11:26:52.253Z,32.40
2022-08-10T11:30:04.852Z,32.50
2022-08-10T11:33:32.678Z,32.50
2022-08-10T11:36:48.015Z,32.60
2022-08-10T11:39:55.692Z,32.60
2022-08-10T11:43:15.031Z,32.70
2022-08-10T11:46:28.681Z,32.70
2022-08-10T11:49:42.360Z,32.80
2022-08-10T11:52:55.994Z,32.80
2022-08-10T11:56:09.629Z,32.80
2022-08-10T11:59:37.563Z,32.80
2022-08-10T12:02:47.454Z,32.80
2022-08-10T12:05:58.576Z,32.80
2022-08-10T12:10:09.364Z,32.80
2022-08-10T12:12:33.469Z,32.80
2022-08-10T12:15:48.835Z,32.90
2022-08-10T12:18:59.683Z,32.90
2022-08-10T12:22:10.438Z,32.90
2022-08-10T12:25:57.584Z,32.90
2022-08-10T12:28:52.507Z,33.00
2022-08-10T12:32:04.815Z,33.00
2022-08-10T12:35:22.791Z,33.00
2022-08-10T12:38:42.524Z,33.10
2022-08-10T12:41:55.684Z,33.10
2022-08-10T12:45:06.290Z,33.10
2022-08-10T12:48:19.513Z,33.20
2022-08-10T12:51:29.019Z,33.20
2022-08-10T12:54:39.059Z,33.20
2022-08-10T12:57:44.827Z,33.20
2022-08-10T13:01:14.712Z,33.20
2022-08-10T13:04:24.367Z,33.20
2022-08-10T13:08:04.102Z,33.20
2022-08-10T13:11:06.000Z,33.20
2022-08-10T13:14:35.585Z,33.20
2022-08-10T13:17:43.145Z,33.10
2022-08-10T13:20:57.458Z,33.20
2022-08-10T13:24:07.909Z,33.20
2022-08-10T13:27:25.936Z,33.20
2022-08-10T13:30:50.884Z,33.20
2022-08-10T13:34:36.580Z,33.20
2022-08-10T13:37:28.176Z,33.20
2022-08-10T13:40:35.616Z,33.20
2022-08-10T13:43:54.830Z,33.20
2022-08-10T13:47:02.709Z,33.10
2022-08-10T13:50:13.919Z,33.10
2022-08-10T13:53:21.075Z,33.00
2022-08-10T13:56:27.458Z,32.90
2022-08-10T14:00:34.960Z,32.90
2022-08-10T14:03:05.548Z,32.80
2022-08-10T14:06:15.567Z,32.80
2022-08-10T14:09:29.896Z,32.80
2022-08-10T14:12:35.688Z,32.70
2022-08-10T14:15:48.174Z,32.70
2022-08-10T14:18:59.120Z,32.60
2022-08-10T14:22:05.050Z,32.60
2022-08-10T14:25:12.111Z,32.50
2022-08-10T14:28:23.838Z,32.50
2022-08-10T14:31:34.416Z,32.40
2022-08-10T14:34:59.404Z,32.30
2022-08-10T14:38:15.375Z,32.20
2022-08-10T14:42:01.063Z,32.20
2022-08-10T14:44:56.611Z,32.20
2022-08-10T14:48:11.461Z,32.20
2022-08-10T14:51:22.269Z,32.20
2022-08-10T14:54:30.590Z,32.20
2022-08-10T14:58:17.154Z,32.10
2022-08-10T15:01:02.122Z,32.10
2022-08-10T15:04:13.685Z,32.00
2022-08-10T15:07:23.606Z,32.00
2022-08-10T15:10:29.318Z,32.00
2022-08-10T15:13:35.706Z,32.00
2022-08-10T15:16:41.075Z,32.00
2022-08-10T15:20:02.804Z,32.00
2022-08-10T15:23:30.689Z,31.90
2022-08-10T15:26:38.390Z,31.90
2022-08-10T15:29:58.301Z,31.80
2022-08-10T15:33:21.206Z,31.80
2022-08-10T15:37:36.816Z,31.70
2022-08-10T15:40:40.607Z,31.70
2022-08-10T15:44:00.786Z,31.60
2022-08-10T15:47:08.525Z,31.60
2022-08-10T15:50:21.403Z,31.50
2022-08-10T15:53:49.499Z,31.50
2022-08-10T15:57:05.381Z,31.40
2022-08-10T16:00:19.530Z,31.40
2022-08-10T16:03:28.878Z,31.30
2022-08-10T16:06:39.091Z,31.30
2022-08-10T16:10:24.032Z,31.20
2022-08-10T16:13:59.576Z,31.10
2022-08-10T16:16:52.425Z,31.00
2022-08-10T16:20:01.539Z,30.90
2022-08-10T16:23:08.739Z,30.90
2022-08-10T16:26:29.458Z,30.80
2022-08-10T16:29:55.796Z,30.80
2022-08-10T16:33:02.703Z,30.70
2022-08-10T16:36:17.105Z,30.70
2022-08-10T16:39:57.012Z,30.60
2022-08-10T16:42:52.516Z,30.60
2022-08-10T16:46:00.092Z,30.50
2022-08-10T16:49:05.785Z,30.50
2022-08-10T16:52:17.060Z,30.40
2022-08-10T16:55:49.041Z,30.30
2022-08-10T16:59:03.031Z,30.30
2022-08-10T17:02:09.515Z,30.20
2022-08-10T17:06:11.169Z,30.20
2022-08-10T17:08:51.874Z,30.10
2022-08-10T17:11:59.690Z,30.00
2022-08-10T17:15:16.530Z,30.00
2022-08-10T17:18:31.752Z,29.90
2022-08-10T17:21:51.054Z,29.80
2022-08-10T17:25:02.326Z,29.70
2022-08-10T17:28:10.188Z,29.60
2022-08-10T17:31:39.741Z,29.50
2022-08-10T17:35:00.053Z,29.50
2022-08-10T17:38:13.893Z,29.40
2022-08-10T17:41:19.321Z,29.30
2022-08-10T17:44:25.472Z,29.30
2022-08-10T17:47:38.157Z,29.20
2022-08-10T17:50:51.115Z,29.20
2022-08-10T17:54:00.184Z,29.10
2022-08-10T17:57:12.006Z,29.00
2022-08-10T18:00:20.161Z,29.00
2022-08-10T18:03:31.360Z,28.90
2022-08-10T18:06:38.033Z,28.80
2022-08-10T18:09:46.700Z,28.80
2022-08-10T18:12:56.579Z,28.80
2022-08-10T18:16:01.808Z,28.60
2022-08-10T18:19:12.150Z,28.60
2022-08-10T18:22:19.180Z,28.60
2022-08-10T18:25:32.899Z,28.60
2022-08-10T18:28:42.183Z,28.50
2022-08-10T18:31:49.514Z,28.50
2022-08-10T18:35:02.958Z,28.40
2022-08-10T18:38:09.311Z,28.30
2022-08-10T18:41:19.506Z,28.30
2022-08-10T18:44:31.309Z,28.20
2022-08-10T18:47:59.189Z,28.20
2022-08-10T18:51:13.577Z,28.10
2022-08-10T18:54:38.925Z,28.10
2022-08-10T18:58:13.063Z,28.00
2022-08-10T19:01:35.222Z,27.90
2022-08-10T19:05:02.891Z,27.90
2022-08-10T19:08:34.598Z,27.70
2022-08-10T19:11:57.503Z,27.70
2022-08-10T19:15:11.595Z,27.60
2022-08-10T19:18:35.840Z,27.50
2022-08-10T19:21:45.871Z,27.50
2022-08-10T19:25:10.926Z,27.40
2022-08-10T19:28:24.705Z,27.30
2022-08-10T19:31:44.496Z,27.20
2022-08-10T19:35:02.522Z,27.20
2022-08-10T19:38:16.529Z,27.10
2022-08-10T19:41:31.902Z,27.00
2022-08-10T19:44:46.196Z,26.90
2022-08-10T19:47:59.689Z,26.80
2022-08-10T19:51:10.667Z,26.70
2022-08-10T19:54:19.753Z,26.70
2022-08-10T19:57:36.503Z,26.60
2022-08-10T20:00:52.408Z,26.50
2022-08-10T20:04:04.311Z,26.40
2022-08-10T20:07:15.157Z,26.40
2022-08-10T20:10:30.251Z,26.30
2022-08-10T20:13:49.854Z,26.20
2022-08-10T20:17:01.358Z,26.10
2022-08-10T20:20:11.734Z,26.10
2022-08-10T20:23:27.918Z,26.00
2022-08-10T20:26:45.399Z,25.90
2022-08-10T20:29:58.920Z,25.90
2022-08-10T20:33:12.978Z,25.80
2022-08-10T20:36:28.449Z,25.70
2022-08-10T20:39:45.666Z,25.60
2022-08-10T20:42:58.223Z,25.60
2022-08-10T20:46:13.633Z,25.50
2022-08-10T20:49:28.910Z,25.40
2022-08-10T20:52:36.670Z,25.30
2022-08-10T20:56:12.510Z,25.20
2022-08-10T21:00:02.399Z,25.10
2022-08-10T21:03:31.833Z,25.10
2022-08-10T21:06:58.422Z,25.00
2022-08-10T21:10:15.227Z,24.90
2022-08-10T21:13:53.123Z,24.80
2022-08-10T21:17:14.377Z,24.80
2022-08-10T21:20:47.389Z,24.70
2022-08-10T21:24:22.755Z,24.60
2022-08-10T21:27:58.491Z,24.50
2022-08-10T21:34:55.859Z,24.40
2022-08-10T21:38:06.477Z,24.30
2022-08-10T21:41:56.671Z,24.30
2022-08-10T21:45:58.261Z,24.30
2022-08-10T21:49:14.628Z,24.20
2022-08-10T21:52:41.519Z,24.10
2022-08-10T21:56:23.859Z,24.00
2022-08-10T21:59:56.395Z,24.00
2022-08-10T22:03:17.904Z,23.90
2022-08-10T22:06:39.992Z,23.90
2022-08-10T22:10:13.564Z,23.80
2022-08-10T22:13:37.759Z,23.80
2022-08-10T22:17:05.554Z,23.70
2022-08-10T22:20:30.482Z,23.60
2022-08-10T22:24:16.416Z,23.50
2022-08-10T22:27:47.562Z,23.50
2022-08-10T22:31:24.822Z,24.50
2022-08-10T22:31:31.762Z,23.40
2022-08-10T22:35:00.243Z,23.40
2022-08-10T22:38:33.611Z,23.30
2022-08-10T22:42:04.017Z,23.20
2022-08-10T22:45:26.009Z,23.20
2022-08-10T22:48:46.446Z,23.10
2022-08-10T22:52:01.863Z,23.10
2022-08-10T22:55:27.683Z,23.00
2022-08-10T22:58:44.459Z,23.00
2022-08-10T23:02:07.332Z,22.90
2022-08-10T23:05:19.860Z,22.90
2022-08-10T23:08:30.994Z,22.80
2022-08-10T23:11:40.995Z,22.80
2022-08-10T23:14:58.933Z,22.70
2022-08-10T23:18:24.458Z,22.70
2022-08-10T23:22:01.642Z,22.60
2022-08-10T23:25:10.950Z,22.60
2022-08-10T23:28:58.040Z,22.50
2022-08-10T23:32:06.888Z,22.50
2022-08-10T23:36:12.987Z,22.50
2022-08-10T23:38:46.475Z,22.40
2022-08-10T23:42:07.952Z,22.40
2022-08-10T23:45:17.390Z,22.40
2022-08-10T23:48:28.231Z,22.30
2022-08-10T23:51:54.484Z,22.30
2022-08-10T23:55:07.769Z,22.30
2022-08-10T23:58:33.242Z,22.20
